Aviation Digital Data Service (ADDS)

Output produced by TAFs form (1707 UTC 19 January 2017)
found at http://aviationweather.gov/adds/tafs/
 
KCNM 191457Z 1915/2012 26026G36KT P6SM FEW250 
     FM200000 26023KT P6SM SCT200